Time;durP1;ratioP1;P1;durP2;ratioP2;P2;SDS_P1;SDS_P2;PMS_P1;PMS_P2;Temp;Humidity;BMP_temperature;BMP_pressure;BME280_temperature;BME280_humidity;BME280_pressure;Samples;Min_cycle;Max_cycle;Signal;HPM_P1;HPM_P2
2021/10/21 00:02:18;;;;;;;250.87;60.67;;;14.50;99.90;;;;;;6159258;23;20415;-76
2021/10/21 00:04:46;;;;;;;265.10;63.00;;;14.50;99.90;;;;;;6159402;23;20419;-76
2021/10/21 00:07:14;;;;;;;141.20;36.27;;;14.50;99.90;;;;;;6159439;23;20462;-76
2021/10/21 00:09:43;;;;;;;179.47;47.53;;;14.50;99.90;;;;;;6159125;23;20530;-76
2021/10/21 00:12:11;;;;;;;202.37;52.00;;;14.50;99.90;;;;;;6159332;23;20446;-76
2021/10/21 00:14:39;;;;;;;217.57;48.60;;;14.40;99.90;;;;;;6159705;23;20511;-76
2021/10/21 00:17:09;;;;;;;172.60;52.43;;;14.40;99.90;;;;;;6159378;23;20422;-76
2021/10/21 00:19:37;;;;;;;251.30;56.73;;;14.40;99.90;;;;;;6159315;23;20482;-76
2021/10/21 00:22:05;;;;;;;271.80;66.67;;;14.40;99.90;;;;;;6159833;23;20424;-76
2021/10/21 00:24:34;;;;;;;175.93;43.30;;;14.40;99.90;;;;;;6159121;23;20502;-76
2021/10/21 00:27:02;;;;;;;120.13;39.40;;;14.40;99.90;;;;;;6159355;23;20419;-76
2021/10/21 00:29:30;;;;;;;194.47;43.57;;;14.30;99.90;;;;;;6159312;23;20464;-76
2021/10/21 00:31:58;;;;;;;176.63;41.03;;;14.30;99.90;;;;;;6158992;23;21001;-76
2021/10/21 00:34:28;;;;;;;188.47;42.63;;;14.30;99.90;;;;;;6195530;23;20816;-76
2021/10/21 00:36:56;;;;;;;235.43;51.77;;;14.30;99.90;;;;;;6186303;23;20419;-77
2021/10/21 00:39:24;;;;;;;240.27;45.43;;;14.30;99.90;;;;;;6158920;23;20510;-76
2021/10/21 00:41:52;;;;;;;236.20;46.37;;;14.30;99.90;;;;;;6159247;23;20407;-76
2021/10/21 00:44:22;;;;;;;318.93;57.60;;;14.30;99.90;;;;;;6185477;23;20889;-76
2021/10/21 00:46:51;;;;;;;207.50;47.30;;;14.30;99.90;;;;;;6159152;23;20419;-76
2021/10/21 00:49:19;;;;;;;166.30;44.83;;;14.30;99.90;;;;;;6185399;23;20448;-76
2021/10/21 00:51:49;;;;;;;251.63;56.03;;;14.30;99.90;;;;;;6159094;23;20410;-76
2021/10/21 00:54:20;;;;;;;187.77;41.33;;;14.30;99.90;;;;;;6159216;23;20855;-76
2021/10/21 00:56:51;;;;;;;261.20;53.20;;;14.30;99.90;;;;;;6158928;23;20755;-76
2021/10/21 00:59:20;;;;;;;251.23;46.70;;;14.30;99.90;;;;;;6195462;23;20439;-76
2021/10/21 01:01:49;;;;;;;201.60;44.97;;;14.30;99.90;;;;;;6195343;23;20950;-76
2021/10/21 01:04:17;;;;;;;233.73;45.10;;;14.30;99.90;;;;;;6187727;23;20416;-76
2021/10/21 01:06:45;;;;;;;152.27;34.97;;;14.30;99.90;;;;;;6160951;23;20929;-76
2021/10/21 01:09:15;;;;;;;194.27;38.80;;;14.30;99.90;;;;;;6197191;23;20415;-76
2021/10/21 01:11:43;;;;;;;264.53;49.57;;;14.30;99.90;;;;;;6160901;23;20921;-76
2021/10/21 01:14:12;;;;;;;255.30;45.27;;;14.30;99.90;;;;;;6161097;23;20803;-76
2021/10/21 01:16:40;;;;;;;176.60;45.40;;;14.20;99.90;;;;;;6160954;23;20419;-76
2021/10/21 01:19:16;;;;;;;262.87;43.57;;;14.20;99.90;;;;;;6160649;23;20938;-76
2021/10/21 01:21:47;;;;;;;169.97;40.70;;;14.20;99.90;;;;;;6187269;23;20406;-76
2021/10/21 01:24:16;;;;;;;224.80;39.80;;;14.20;99.90;;;;;;6161002;23;20423;-76
2021/10/21 01:26:45;;;;;;;274.13;50.60;;;14.20;99.90;;;;;;6160857;23;20462;-76
2021/10/21 01:29:13;;;;;;;183.30;38.93;;;14.10;99.90;;;;;;6160722;23;20467;-76
2021/10/21 01:31:41;;;;;;;312.70;54.00;;;14.10;99.90;;;;;;6160904;23;20750;-77
2021/10/21 01:34:11;;;;;;;275.23;51.37;;;14.10;99.90;;;;;;6197435;23;20938;-76
2021/10/21 01:36:43;;;;;;;266.37;48.10;;;14.10;99.90;;;;;;6160768;23;20795;-76
2021/10/21 01:39:13;;;;;;;218.27;38.93;;;14.00;99.90;;;;;;6194963;23;20524;-76
2021/10/21 01:41:41;;;;;;;266.70;47.23;;;14.00;99.90;;;;;;6160817;23;20403;-76
2021/10/21 01:44:09;;;;;;;270.23;53.20;;;14.00;99.90;;;;;;6196990;23;20716;-76
2021/10/21 01:46:38;;;;;;;153.60;37.67;;;14.00;99.90;;;;;;6160629;23;20403;-77
2021/10/21 01:49:07;;;;;;;243.17;41.27;;;13.90;99.90;;;;;;6160585;23;20439;-76
2021/10/21 01:51:35;;;;;;;308.30;54.33;;;13.90;99.90;;;;;;6197680;23;20392;-76
2021/10/21 01:54:03;;;;;;;249.57;44.47;;;13.90;99.90;;;;;;6160179;23;20754;-76
2021/10/21 01:56:33;;;;;;;267.63;49.73;;;13.90;99.90;;;;;;6187188;23;20470;-76
2021/10/21 01:59:01;;;;;;;250.87;43.67;;;13.90;99.90;;;;;;6160376;23;20457;-76
2021/10/21 02:01:29;;;;;;;217.17;43.17;;;13.90;99.90;;;;;;6160539;23;20426;-76
2021/10/21 02:03:57;;;;;;;257.70;48.70;;;13.90;99.90;;;;;;6186813;23;20412;-76
2021/10/21 02:06:26;;;;;;;288.20;45.33;;;13.80;99.90;;;;;;6160396;23;20753;-76
2021/10/21 02:08:54;;;;;;;267.53;41.57;;;13.80;99.90;;;;;;6160343;23;20439;-76
2021/10/21 02:11:22;;;;;;;271.37;48.70;;;13.80;99.90;;;;;;6160504;23;20403;-76
2021/10/21 02:13:51;;;;;;;224.43;50.57;;;13.80;99.90;;;;;;6159557;23;20518;-76
2021/10/21 02:16:19;;;;;;;325.63;51.03;;;13.80;99.90;;;;;;6160348;23;20419;-76
2021/10/21 02:18:47;;;;;;;243.83;51.30;;;13.80;99.90;;;;;;6196398;23;20443;-76
2021/10/21 02:21:16;;;;;;;254.07;42.27;;;13.80;99.90;;;;;;6160343;23;20502;-77
2021/10/21 02:23:45;;;;;;;216.50;47.20;;;13.80;99.90;;;;;;6160259;23;20814;-76
2021/10/21 02:26:13;;;;;;;239.70;45.87;;;13.80;99.90;;;;;;6186966;23;20792;-77
2021/10/21 02:28:42;;;;;;;260.73;53.80;;;13.90;99.90;;;;;;6186802;23;20747;-77
2021/10/21 02:31:11;;;;;;;239.57;46.43;;;13.90;99.90;;;;;;6196550;23;20482;-77
2021/10/21 02:33:40;;;;;;;128.90;35.90;;;13.90;99.90;;;;;;6159881;23;20423;-77
2021/10/21 02:36:08;;;;;;;243.40;43.73;;;13.90;99.90;;;;;;6160166;23;20914;-77
2021/10/21 02:38:36;;;;;;;187.10;41.17;;;13.90;99.90;;;;;;6196343;23;20782;-77
2021/10/21 02:41:04;;;;;;;239.83;54.77;;;13.90;99.90;;;;;;6160105;23;20435;-77
2021/10/21 02:43:34;;;;;;;249.40;46.90;;;13.90;99.90;;;;;;6160001;23;20990;-76
2021/10/21 02:46:02;;;;;;;271.27;54.37;;;14.00;99.90;;;;;;6196405;23;20392;-76
2021/10/21 02:48:32;;;;;;;257.80;52.17;;;14.00;99.90;;;;;;6196344;23;20423;-76
2021/10/21 02:51:00;;;;;;;232.60;45.83;;;14.00;99.90;;;;;;6161061;23;20420;-77
2021/10/21 02:53:28;;;;;;;171.90;43.83;;;14.00;99.90;;;;;;6159809;23;20422;-77
2021/10/21 02:55:57;;;;;;;240.13;53.63;;;14.00;99.90;;;;;;6186541;23;20471;-77
2021/10/21 02:58:25;;;;;;;205.50;40.57;;;14.00;99.90;;;;;;6159800;23;20426;-77
2021/10/21 03:00:55;;;;;;;244.73;45.90;;;14.00;99.90;;;;;;6196300;23;20406;-76
2021/10/21 03:03:23;;;;;;;201.07;47.83;;;14.00;99.90;;;;;;6160352;23;20415;-77
2021/10/21 03:05:52;;;;;;;242.80;46.90;;;14.00;99.90;;;;;;6159765;23;20498;-77
2021/10/21 03:08:21;;;;;;;202.83;43.00;;;14.10;99.90;;;;;;6186654;23;20446;-77
2021/10/21 03:10:49;;;;;;;277.27;47.77;;;14.10;99.90;;;;;;6159761;23;20774;-76
2021/10/21 03:13:17;;;;;;;258.13;40.93;;;14.10;99.90;;;;;;6196525;23;20498;-77
2021/10/21 03:15:46;;;;;;;187.07;40.83;;;14.10;99.90;;;;;;6159668;23;20408;-77
2021/10/21 03:18:14;;;;;;;232.73;46.57;;;14.10;99.90;;;;;;6159740;23;20420;-77
2021/10/21 03:20:42;;;;;;;187.93;35.40;;;14.10;99.90;;;;;;6159826;23;20767;-77
2021/10/21 03:23:12;;;;;;;190.33;41.50;;;14.10;99.90;;;;;;6159963;23;20484;-77
2021/10/21 03:25:40;;;;;;;236.53;42.60;;;14.10;99.90;;;;;;6159729;23;20507;-77
2021/10/21 03:28:11;;;;;;;254.43;49.50;;;14.20;99.90;;;;;;6159672;23;20415;-77
2021/10/21 03:30:39;;;;;;;196.63;35.87;;;14.20;99.90;;;;;;6159625;23;20419;-77
2021/10/21 03:33:07;;;;;;;217.93;35.07;;;14.20;99.90;;;;;;6159513;23;20438;-77
2021/10/21 03:35:35;;;;;;;163.50;36.60;;;14.20;99.90;;;;;;6159574;23;20740;-76
2021/10/21 03:38:04;;;;;;;262.57;48.13;;;14.30;99.90;;;;;;6186324;23;20478;-76
2021/10/21 03:40:33;;;;;;;214.17;30.43;;;14.30;99.90;;;;;;6159457;23;20502;-76
2021/10/21 03:43:02;;;;;;;210.57;45.53;;;14.30;99.90;;;;;;6159484;23;20454;-75
2021/10/21 03:45:30;;;;;;;291.33;53.57;;;14.30;99.90;;;;;;6194521;23;20407;-76
2021/10/21 03:47:59;;;;;;;299.60;45.60;;;14.30;99.90;;;;;;6159412;23;20415;-75
2021/10/21 03:50:28;;;;;;;248.40;57.27;;;14.20;99.90;;;;;;6159604;23;20439;-76
2021/10/21 03:52:56;;;;;;;302.00;41.60;;;14.20;99.90;;;;;;6159245;23;20946;-76
2021/10/21 03:55:24;;;;;;;245.10;39.90;;;14.20;99.90;;;;;;6159735;23;20424;-76
2021/10/21 03:57:54;;;;;;;186.53;40.17;;;14.20;99.90;;;;;;6185613;23;20410;-76
2021/10/21 04:00:22;;;;;;;253.47;56.77;;;14.10;99.90;;;;;;6159199;23;20471;-76
2021/10/21 04:02:50;;;;;;;235.77;46.13;;;14.10;99.90;;;;;;6159295;23;20498;-76
2021/10/21 04:05:22;;;;;;;323.57;52.60;;;14.10;99.90;;;;;;6159385;23;20466;-76
2021/10/21 04:07:50;;;;;;;219.17;42.43;;;14.10;99.90;;;;;;6195704;23;20380;-76
2021/10/21 04:10:18;;;;;;;85.60;18.80;;;14.00;99.90;;;;;;6159283;23;20474;-75
2021/10/21 04:12:47;;;;;;;149.27;22.07;;;14.00;99.90;;;;;;6195772;23;20396;-76
2021/10/21 04:15:16;;;;;;;431.70;134.10;;;13.80;99.90;;;;;;6195544;23;20508;-75
2021/10/21 04:17:44;;;;;;;334.47;79.77;;;13.60;99.90;;;;;;6159410;23;20412;-75
2021/10/21 04:20:12;;;;;;;324.93;91.23;;;13.40;99.90;;;;;;6159355;23;20446;-76
2021/10/21 04:22:40;;;;;;;346.63;92.30;;;13.20;99.90;;;;;;6159309;23;20503;-76
2021/10/21 04:25:09;;;;;;;369.23;76.60;;;13.10;99.90;;;;;;6160815;23;20416;-76
2021/10/21 04:27:37;;;;;;;356.70;68.53;;;13.00;99.90;;;;;;6159479;23;20431;-76
2021/10/21 04:30:06;;;;;;;291.80;61.70;;;12.90;99.90;;;;;;6195545;23;20419;-76
2021/10/21 04:32:36;;;;;;;404.03;65.77;;;12.80;99.90;;;;;;6159340;23;20772;-76
2021/10/21 04:35:05;;;;;;;409.13;76.30;;;12.70;99.90;;;;;;6159265;23;20527;-76
2021/10/21 04:37:33;;;;;;;290.83;78.77;;;12.70;99.90;;;;;;6159936;23;20422;-77
2021/10/21 04:40:01;;;;;;;232.33;45.57;;;12.70;99.90;;;;;;6160783;23;20467;-76
2021/10/21 04:42:29;;;;;;;223.77;60.57;;;12.60;99.90;;;;;;6161457;23;20899;-76
2021/10/21 04:44:57;;;;;;;325.90;65.00;;;12.50;99.90;;;;;;6161143;23;20498;-76
2021/10/21 04:47:25;;;;;;;161.47;31.23;;;12.50;99.90;;;;;;6197603;23;20403;-77
2021/10/21 04:49:55;;;;;;;333.77;51.10;;;12.40;99.90;;;;;;6197471;23;20422;-77
2021/10/21 04:52:23;;;;;;;366.00;75.23;;;12.40;99.90;;;;;;6161302;23;20450;-77
2021/10/21 04:54:51;;;;;;;244.50;58.07;;;12.40;99.90;;;;;;6161215;23;20523;-76
2021/10/21 04:57:19;;;;;;;281.87;49.13;;;12.40;99.90;;;;;;6161186;23;20926;-76
2021/10/21 04:59:47;;;;;;;309.83;50.43;;;12.30;99.90;;;;;;6159515;23;21013;-76
2021/10/21 05:02:16;;;;;;;359.57;51.70;;;12.30;99.90;;;;;;6161036;23;20426;-76
2021/10/21 05:04:45;;;;;;;246.87;42.07;;;12.30;99.90;;;;;;6160986;23;20898;-76
2021/10/21 05:07:14;;;;;;;177.43;45.77;;;12.30;99.90;;;;;;6158544;23;20415;-76
2021/10/21 05:09:42;;;;;;;226.97;44.30;;;12.30;99.90;;;;;;6159828;23;20838;-76
2021/10/21 05:12:10;;;;;;;171.20;34.27;;;12.40;99.90;;;;;;6197434;23;20399;-77
2021/10/21 05:14:40;;;;;;;192.30;38.13;;;12.30;99.90;;;;;;6161080;23;20415;-78
2021/10/21 05:17:08;;;;;;;339.10;58.30;;;12.40;99.90;;;;;;6160888;23;20407;-76
2021/10/21 05:19:36;;;;;;;204.47;48.90;;;12.40;99.90;;;;;;6187094;23;20463;-76
2021/10/21 05:22:04;;;;;;;360.87;61.27;;;12.40;99.90;;;;;;6160881;23;20929;-76
2021/10/21 05:24:34;;;;;;;327.77;57.50;;;12.40;99.90;;;;;;6160818;23;20444;-77
2021/10/21 05:27:02;;;;;;;246.70;52.73;;;12.40;99.90;;;;;;6197238;23;20913;-76
2021/10/21 05:29:30;;;;;;;229.97;43.13;;;12.40;99.90;;;;;;6160862;23;20477;-76
2021/10/21 05:31:58;;;;;;;230.07;53.50;;;12.40;99.90;;;;;;6160963;23;20418;-77
2021/10/21 05:34:26;;;;;;;310.33;55.07;;;12.40;99.90;;;;;;6160772;23;20426;-77
2021/10/21 05:36:55;;;;;;;340.47;53.33;;;12.40;99.90;;;;;;6160571;23;20458;-77
2021/10/21 05:39:23;;;;;;;270.23;56.73;;;12.40;99.90;;;;;;6160516;23;20482;-77
2021/10/21 05:41:52;;;;;;;186.17;35.30;;;12.40;99.90;;;;;;6186913;23;20423;-76
2021/10/21 05:44:20;;;;;;;339.33;60.30;;;12.40;99.90;;;;;;6161077;23;20411;-78
2021/10/21 05:46:49;;;;;;;221.83;51.77;;;12.30;99.90;;;;;;6160587;23;20510;-76
2021/10/21 05:49:18;;;;;;;300.37;53.23;;;12.30;99.90;;;;;;6196233;23;20494;-77
2021/10/21 05:51:47;;;;;;;257.03;45.77;;;12.30;99.90;;;;;;6160677;23;20820;-77
2021/10/21 05:54:15;;;;;;;263.37;39.00;;;12.30;99.90;;;;;;6196937;23;20947;-77
2021/10/21 05:56:44;;;;;;;191.27;42.80;;;12.30;99.90;;;;;;6197193;23;20392;-76
2021/10/21 05:59:14;;;;;;;291.07;55.37;;;12.30;99.90;;;;;;6160595;23;20443;-77
2021/10/21 06:01:42;;;;;;;204.47;50.43;;;12.20;99.90;;;;;;6161050;23;20958;-76
2021/10/21 06:04:10;;;;;;;294.67;49.23;;;12.20;99.90;;;;;;6187593;23;20409;-76
2021/10/21 06:06:38;;;;;;;240.97;46.27;;;12.20;99.90;;;;;;6160972;23;20454;-77
2021/10/21 06:09:07;;;;;;;262.07;33.87;;;12.20;99.90;;;;;;6160855;23;20470;-76
2021/10/21 06:11:37;;;;;;;187.87;36.33;;;12.20;99.90;;;;;;6160904;23;20917;-76
2021/10/21 06:14:06;;;;;;;237.83;43.17;;;12.10;99.90;;;;;;6160935;23;20435;-76
2021/10/21 06:16:36;;;;;;;202.33;29.60;;;12.20;99.90;;;;;;6161227;23;20451;-75
2021/10/21 06:19:04;;;;;;;194.90;37.33;;;12.10;99.90;;;;;;6187481;23;20432;-75
2021/10/21 06:21:32;;;;;;;159.80;35.67;;;12.10;99.90;;;;;;6161129;23;20431;-76
2021/10/21 06:24:00;;;;;;;349.07;45.53;;;12.10;99.90;;;;;;6160844;23;20514;-75
2021/10/21 06:26:29;;;;;;;299.27;44.63;;;12.10;99.90;;;;;;6160854;23;20477;-75
2021/10/21 06:28:57;;;;;;;231.53;34.57;;;12.10;99.90;;;;;;6160896;23;20462;-75
2021/10/21 06:31:25;;;;;;;226.47;47.43;;;12.00;99.90;;;;;;6187414;23;20479;-75
2021/10/21 06:33:55;;;;;;;286.90;46.37;;;12.00;99.90;;;;;;6160709;23;20887;-75
2021/10/21 06:36:25;;;;;;;128.80;26.07;;;11.90;99.90;;;;;;6197572;23;20419;-75
2021/10/21 06:38:53;;;;;;;283.07;41.90;;;11.80;99.90;;;;;;6160775;23;20453;-75
2021/10/21 06:41:21;;;;;;;237.70;46.63;;;11.80;99.90;;;;;;6186656;23;20527;-75
2021/10/21 06:43:49;;;;;;;292.90;49.93;;;11.70;99.90;;;;;;6161354;23;20502;-75
2021/10/21 06:46:17;;;;;;;228.90;50.87;;;11.70;99.90;;;;;;6160003;23;20422;-75
2021/10/21 06:48:47;;;;;;;292.00;48.13;;;11.70;99.90;;;;;;6160123;23;20910;-75
2021/10/21 06:51:17;;;;;;;147.30;30.87;;;11.60;99.90;;;;;;6160247;23;20758;-75
2021/10/21 06:53:45;;;;;;;260.90;38.00;;;11.60;99.90;;;;;;6186724;23;20439;-76
2021/10/21 06:56:13;;;;;;;183.43;39.90;;;11.50;99.90;;;;;;6186775;23;20458;-76
2021/10/21 06:58:42;;;;;;;186.83;37.30;;;11.50;99.90;;;;;;6196552;23;20415;-76
2021/10/21 07:01:10;;;;;;;220.73;43.30;;;11.40;99.90;;;;;;6159686;23;20443;-75
2021/10/21 07:03:38;;;;;;;146.97;23.60;;;11.40;99.90;;;;;;6160103;23;20419;-75
2021/10/21 07:06:06;;;;;;;251.00;43.07;;;11.30;99.90;;;;;;6160084;23;20462;-75
2021/10/21 07:08:36;;;;;;;431.53;42.70;;;11.30;99.90;;;;;;6196826;23;20415;-75
2021/10/21 07:11:04;;;;;;;137.80;34.90;;;11.30;99.90;;;;;;6159959;23;20422;-75
2021/10/21 07:13:32;;;;;;;202.00;22.77;;;11.30;99.90;;;;;;6159823;23;20506;-75
2021/10/21 07:16:06;;;;;;;135.93;31.63;;;11.30;99.90;;;;;;6160316;23;20910;-75
2021/10/21 07:18:34;;;;;;;218.50;42.90;;;11.30;99.90;;;;;;6196130;23;20508;-74
2021/10/21 07:21:03;;;;;;;243.03;35.77;;;11.30;99.90;;;;;;6159918;23;20467;-75
2021/10/21 07:23:31;;;;;;;345.80;54.40;;;11.20;99.90;;;;;;6196405;23;20487;-75
2021/10/21 07:26:01;;;;;;;209.90;32.83;;;11.20;99.90;;;;;;6159682;23;20416;-76
2021/10/21 07:28:29;;;;;;;203.90;36.00;;;11.20;99.90;;;;;;6159922;23;20454;-75
2021/10/21 07:30:58;;;;;;;166.57;16.10;;;11.10;99.90;;;;;;6159843;23;20767;-75
2021/10/21 07:33:27;;;;;;;170.43;25.13;;;11.10;99.90;;;;;;6159803;23;20411;-75
2021/10/21 07:35:57;;;;;;;465.83;40.87;;;11.10;99.90;;;;;;6196019;23;20494;-75
2021/10/21 07:38:25;;;;;;;113.90;23.03;;;11.10;99.90;;;;;;6196228;23;20732;-75
2021/10/21 07:40:53;;;;;;;60.43;13.23;;;11.00;99.90;;;;;;6159317;23;20427;-76
2021/10/21 07:43:23;;;;;;;244.83;37.40;;;11.00;99.90;;;;;;6159635;23;20416;-75
2021/10/21 07:45:51;;;;;;;193.53;30.27;;;10.90;99.90;;;;;;6159728;23;20910;-75
2021/10/21 07:48:20;;;;;;;148.07;28.17;;;10.90;99.90;;;;;;6159424;23;20489;-75
2021/10/21 07:50:48;;;;;;;184.67;30.50;;;10.80;99.90;;;;;;6159833;23;20447;-76
2021/10/21 07:53:16;;;;;;;270.97;37.90;;;10.80;99.90;;;;;;6196032;23;20803;-76
2021/10/21 07:55:45;;;;;;;279.80;42.90;;;10.80;99.90;;;;;;6159638;23;20510;-75
2021/10/21 07:58:13;;;;;;;101.23;29.33;;;10.80;99.90;;;;;;6159615;23;20522;-75
2021/10/21 08:00:43;;;;;;;176.93;38.50;;;10.80;99.90;;;;;;6159587;23;20423;-75
2021/10/21 08:03:11;;;;;;;173.77;29.67;;;10.80;99.90;;;;;;6159399;23;20441;-75
2021/10/21 08:05:40;;;;;;;280.13;39.07;;;10.80;99.90;;;;;;6195754;23;20395;-75
2021/10/21 08:08:08;;;;;;;224.43;34.87;;;10.80;99.90;;;;;;6195952;23;20400;-75
2021/10/21 08:10:36;;;;;;;174.97;35.63;;;10.70;99.90;;;;;;6159538;23;20408;-75
2021/10/21 08:13:04;;;;;;;242.53;33.57;;;10.70;99.90;;;;;;6159504;23;20503;-75
2021/10/21 08:15:33;;;;;;;153.00;34.70;;;10.70;99.90;;;;;;6159801;23;20729;-75
2021/10/21 08:18:02;;;;;;;202.23;32.50;;;10.80;99.90;;;;;;6159837;23;20423;-75
2021/10/21 08:20:31;;;;;;;300.70;42.43;;;10.80;99.90;;;;;;6159861;23;20477;-75
2021/10/21 08:23:01;;;;;;;209.47;37.90;;;10.80;99.90;;;;;;6159860;23;20564;-75
2021/10/21 08:25:29;;;;;;;160.77;29.93;;;10.80;99.90;;;;;;6160264;23;20443;-76
2021/10/21 08:27:57;;;;;;;207.97;25.80;;;10.80;99.90;;;;;;6159982;23;20834;-75
2021/10/21 08:30:26;;;;;;;154.90;29.17;;;10.80;99.90;;;;;;6159630;23;20435;-76
2021/10/21 08:32:59;;;;;;;185.80;36.23;;;10.80;99.90;;;;;;6160037;23;20404;-75
2021/10/21 08:35:29;;;;;;;242.90;40.80;;;10.90;99.90;;;;;;6159666;23;20852;-75
2021/10/21 08:37:58;;;;;;;216.00;32.57;;;10.90;99.90;;;;;;6196219;23;20502;-75
2021/10/21 08:40:27;;;;;;;214.30;36.17;;;10.90;99.90;;;;;;6159536;23;20443;-75
2021/10/21 08:42:55;;;;;;;136.60;29.43;;;11.00;99.90;;;;;;6195999;23;20521;-75
2021/10/21 08:45:26;;;;;;;161.80;38.27;;;11.00;99.90;;;;;;6159539;23;20462;-76
2021/10/21 08:47:58;;;;;;;217.73;43.47;;;11.00;99.90;;;;;;6159773;23;20502;-76
2021/10/21 08:50:26;;;;;;;230.23;40.37;;;11.00;99.90;;;;;;6159667;23;20466;-76
2021/10/21 08:52:56;;;;;;;219.00;33.23;;;11.10;99.90;;;;;;6159703;23;20825;-75
2021/10/21 08:55:24;;;;;;;268.43;44.53;;;11.10;99.90;;;;;;6159624;23;20492;-75
2021/10/21 08:57:52;;;;;;;254.97;46.43;;;11.10;99.90;;;;;;6196322;23;20406;-76
2021/10/21 09:00:21;;;;;;;262.67;41.30;;;11.10;99.90;;;;;;6195925;23;20502;-76
2021/10/21 09:02:52;;;;;;;212.17;37.07;;;11.20;99.90;;;;;;6159649;23;20493;-75
2021/10/21 09:05:29;;;;;;;250.10;41.23;;;11.20;99.90;;;;;;6159702;23;20404;-75
2021/10/21 09:08:05;;;;;;;238.50;47.60;;;11.20;99.90;;;;;;6159631;23;20447;-75
2021/10/21 09:10:42;;;;;;;183.93;52.97;;;11.30;99.90;;;;;;6159593;23;20522;-75
2021/10/21 09:13:25;;;;;;;288.23;48.80;;;11.30;99.90;;;;;;6159635;23;20498;-75
2021/10/21 09:15:57;;;;;;;197.83;41.27;;;11.30;99.90;;;;;;6159474;23;20502;-75
2021/10/21 09:18:26;;;;;;;232.80;46.90;;;11.20;99.90;;;;;;6159486;23;20403;-75
2021/10/21 09:20:55;;;;;;;298.87;49.43;;;11.20;99.90;;;;;;6159450;23;20918;-75
2021/10/21 09:23:29;;;;;;;249.27;49.30;;;11.20;99.90;;;;;;6160065;23;20435;-75
2021/10/21 09:26:08;;;;;;;387.63;55.93;;;11.30;99.90;;;;;;6161078;23;20462;-75
2021/10/21 09:28:37;;;;;;;232.40;34.33;;;11.30;99.90;;;;;;6160774;23;20442;-75
2021/10/21 09:31:08;;;;;;;260.30;53.13;;;11.30;99.90;;;;;;6187607;23;20402;-75
2021/10/21 09:33:44;;;;;;;317.30;52.93;;;11.30;99.90;;;;;;6197890;23;20475;-75
2021/10/21 09:36:17;;;;;;;275.37;47.23;;;11.30;99.90;;;;;;6197135;23;20819;-75
2021/10/21 09:38:55;;;;;;;281.17;43.67;;;11.30;99.90;;;;;;6187408;23;20439;-75
2021/10/21 09:41:25;;;;;;;240.73;42.20;;;11.40;99.90;;;;;;6186985;23;20792;-75
2021/10/21 09:43:54;;;;;;;305.53;61.13;;;11.40;99.90;;;;;;6160655;23;20423;-75
2021/10/21 09:46:38;;;;;;;336.90;57.13;;;11.40;99.90;;;;;;6187316;23;20427;-75
2021/10/21 09:49:18;;;;;;;238.00;37.60;;;11.40;99.90;;;;;;6160667;23;20478;-75
2021/10/21 09:51:46;;;;;;;153.47;32.80;;;11.40;99.90;;;;;;6160792;23;20431;-75
2021/10/21 09:54:17;;;;;;;287.70;47.90;;;11.40;99.90;;;;;;6160735;23;20422;-75
2021/10/21 09:56:56;;;;;;;328.53;49.07;;;11.40;99.90;;;;;;6160675;23;20482;-75
2021/10/21 09:59:26;;;;;;;269.40;51.23;;;11.40;99.90;;;;;;6160482;23;20475;-75
2021/10/21 10:01:57;;;;;;;225.97;40.57;;;11.30;99.90;;;;;;6160994;23;20504;-75
2021/10/21 10:04:27;;;;;;;301.17;41.07;;;11.30;99.90;;;;;;6160626;23;20442;-75
2021/10/21 10:06:59;;;;;;;250.40;39.97;;;11.30;99.90;;;;;;6196818;23;20391;-76
2021/10/21 10:09:35;;;;;;;293.70;50.53;;;11.30;99.90;;;;;;6197091;23;20423;-75
2021/10/21 10:12:05;;;;;;;227.33;47.00;;;11.30;99.90;;;;;;6196801;23;20404;-75
2021/10/21 10:14:40;;;;;;;259.93;51.30;;;11.30;99.90;;;;;;6160589;23;20496;-76
2021/10/21 10:17:08;;;;;;;239.57;43.90;;;11.30;99.90;;;;;;6187224;23;20411;-75
2021/10/21 10:19:37;;;;;;;293.13;56.40;;;11.30;99.90;;;;;;6160776;23;20451;-75
2021/10/21 10:22:12;;;;;;;261.83;47.10;;;11.30;99.90;;;;;;6160358;23;20450;-75
2021/10/21 10:24:46;;;;;;;157.33;32.23;;;11.30;99.90;;;;;;6186782;23;20392;-75
2021/10/21 10:27:27;;;;;;;232.97;48.50;;;11.30;99.90;;;;;;6196771;23;20459;-75
2021/10/21 10:30:00;;;;;;;162.97;35.20;;;11.40;99.90;;;;;;6161052;23;20440;-75
2021/10/21 10:32:42;;;;;;;227.43;47.83;;;11.40;99.90;;;;;;6160371;23;20450;-76
2021/10/21 10:35:13;;;;;;;259.07;44.00;;;11.40;99.90;;;;;;6186697;23;20474;-76
2021/10/21 10:38:01;;;;;;;151.83;41.50;;;11.50;99.90;;;;;;6186862;23;20474;-75
2021/10/21 10:40:56;;;;;;;222.30;39.93;;;11.50;99.90;;;;;;6188605;23;20486;-75
2021/10/21 10:43:41;;;;;;;298.90;46.90;;;11.60;99.90;;;;;;6196420;23;20915;-76
2021/10/21 10:46:12;;;;;;;206.90;41.77;;;11.60;99.90;;;;;;6160367;23;20403;-75
2021/10/21 10:48:58;;;;;;;184.33;45.10;;;11.60;99.90;;;;;;6160903;23;20442;-75
2021/10/21 10:51:58;;;;;;;224.07;46.30;;;11.60;99.90;;;;;;6196844;23;20415;-75
2021/10/21 10:54:57;;;;;;;256.40;37.37;;;11.60;99.90;;;;;;6161167;23;20436;-75
2021/10/21 10:57:58;;;;;;;203.70;40.47;;;11.50;99.90;;;;;;6160201;23;20495;-75
2021/10/21 11:00:44;;;;;;;139.00;30.27;;;11.40;99.90;;;;;;6148294;23;20474;-75
2021/10/21 11:03:14;;;;;;;204.37;41.07;;;11.40;99.90;;;;;;6196745;23;20423;-74
2021/10/21 11:05:52;;;;;;;284.57;44.53;;;11.30;99.90;;;;;;6186366;23;20930;-74
2021/10/21 11:08:21;;;;;;;176.53;41.40;;;11.30;99.90;;;;;;6159922;23;20414;-75
2021/10/21 11:10:55;;;;;;;248.07;49.00;;;11.30;99.90;;;;;;6159998;23;20502;-75
2021/10/21 11:13:43;;;;;;;226.33;34.60;;;11.30;99.90;;;;;;6186726;23;20399;-75
2021/10/21 11:16:37;;;;;;;185.13;37.33;;;11.30;99.90;;;;;;6187030;23;20400;-75
2021/10/21 11:19:06;;;;;;;187.00;30.87;;;11.30;99.90;;;;;;6196294;23;20415;-75
2021/10/21 11:21:53;;;;;;;175.10;40.67;;;11.30;99.90;;;;;;6159809;23;20414;-75
2021/10/21 11:25:02;;;;;;;232.97;43.60;;;11.30;99.90;;;;;;6159614;23;20459;-75
2021/10/21 11:27:33;;;;;;;274.03;43.37;;;11.30;99.90;;;;;;6118063;23;20531;-75
2021/10/21 11:30:24;;;;;;;4.78;1.50;;;11.30;99.90;;;;;;6195294;23;20493;-75
2021/10/21 11:33:08;;;;;;;217.87;46.57;;;11.40;99.90;;;;;;6159809;23;20161;-75
2021/10/21 11:35:39;;;;;;;231.13;57.83;;;11.40;99.90;;;;;;6159749;23;20737;-75
2021/10/21 11:38:11;;;;;;;259.63;52.50;;;11.40;99.90;;;;;;6196429;23;20836;-75
2021/10/21 11:40:41;;;;;;;205.40;44.07;;;11.40;99.90;;;;;;6159481;23;20415;-75
2021/10/21 11:43:14;;;;;;;163.03;33.27;;;11.40;99.90;;;;;;6196100;23;20402;-75
2021/10/21 11:45:43;;;;;;;233.47;44.80;;;11.40;99.90;;;;;;6159748;23;20486;-75
2021/10/21 11:48:15;;;;;;;167.00;42.10;;;11.40;99.90;;;;;;6159212;23;20420;-74
2021/10/21 11:50:45;;;;;;;184.97;28.97;;;11.30;99.90;;;;;;6159594;23;20841;-75
2021/10/21 11:53:15;;;;;;;373.57;63.77;;;11.20;99.90;;;;;;6196366;23;20439;-75
2021/10/21 11:55:46;;;;;;;213.33;37.77;;;11.00;99.90;;;;;;6159446;23;20882;-75
2021/10/21 11:58:16;;;;;;;131.43;24.60;;;10.80;99.90;;;;;;6159526;23;20507;-76
2021/10/21 12:00:49;;;;;;;218.33;36.37;;;10.60;99.90;;;;;;6159591;23;20498;-75
2021/10/21 12:03:18;;;;;;;151.73;33.77;;;10.50;99.90;;;;;;6160231;23;20708;-76
2021/10/21 12:05:47;;;;;;;199.77;36.63;;;10.40;99.90;;;;;;6196171;23;20403;-76
2021/10/21 12:08:22;;;;;;;159.57;28.30;;;10.40;99.90;;;;;;6159408;23;20750;-76
2021/10/21 12:10:55;;;;;;;61.33;11.57;;;10.30;99.90;;;;;;6159561;23;20415;-76
2021/10/21 12:13:26;;;;;;;224.33;33.40;;;10.30;99.90;;;;;;6160207;23;20910;-76
2021/10/21 12:15:58;;;;;;;133.48;23.15;;;10.30;99.90;;;;;;6160827;23;20419;-76
2021/10/21 12:18:47;;;;;;;237.87;44.03;;;10.20;99.90;;;;;;6159246;23;20192;-76
2021/10/21 12:21:16;;;;;;;133.30;37.37;;;10.10;99.90;;;;;;6159400;23;20451;-76
2021/10/21 12:23:48;;;;;;;127.20;25.87;;;10.00;99.90;;;;;;6159177;23;20435;-76
2021/10/21 12:26:21;;;;;;;123.87;22.87;;;9.90;99.90;;;;;;6185652;23;20724;-77
2021/10/21 12:28:49;;;;;;;122.03;26.87;;;9.90;99.90;;;;;;6159302;23;20471;-75
2021/10/21 12:31:24;;;;;;;163.40;27.07;;;9.90;99.90;;;;;;6159435;23;20403;-76
2021/10/21 12:33:56;;;;;;;251.00;34.90;;;9.90;99.90;;;;;;6159483;23;20473;-75
2021/10/21 12:36:26;;;;;;;145.40;23.57;;;9.90;99.90;;;;;;6159307;23;20412;-76